Time;durP1;ratioP1;P1;durP2;ratioP2;P2;SDS_P1;SDS_P2;PMS_P1;PMS_P2;Temp;Humidity;BMP_temperature;BMP_pressure;BME280_temperature;BME280_humidity;BME280_pressure;Samples;Min_cycle;Max_cycle;Signal;HPM_P1;HPM_P2
2023/12/25 00:02:22;;;;;;;;;;;11.20;1.00;;;;;;5031580;28;19924;-82
2023/12/25 00:07:58;;;;;;;;;;;11.10;1.00;;;;;;5037449;28;20393;-82
2023/12/25 00:10:25;;;;;;;;;;;11.10;1.00;;;;;;5040113;28;19909;-82
2023/12/25 00:13:04;;;;;;;;;;;11.10;1.00;;;;;;5021312;28;20395;-81
2023/12/25 00:18:33;;;;;;;;;;;11.10;1.00;;;;;;5031561;28;19916;-76
2023/12/25 00:20:58;;;;;;;;;;;11.20;1.00;;;;;;5035645;28;20001;-75
2023/12/25 00:23:24;;;;;;;;;;;11.20;1.00;;;;;;5035091;28;19991;-76
2023/12/25 00:25:49;;;;;;;;;;;11.20;1.00;;;;;;5034559;28;19909;-76
2023/12/25 00:28:15;;;;;;;;;;;;;;;;;;5034450;28;19913;-75
2023/12/25 00:30:46;;;;;;;;;;;11.20;1.00;;;;;;5041999;28;19916;-75
2023/12/25 00:33:12;;;;;;;;;;;11.20;1.00;;;;;;5048218;28;19909;-75
2023/12/25 00:36:04;;;;;;;;;;;11.10;1.00;;;;;;5036252;28;19970;-82
2023/12/25 00:38:46;;;;;;;;;;;11.10;1.00;;;;;;5036711;28;19916;-82
2023/12/25 00:46:53;;;;;;;;;;;11.10;1.00;;;;;;5031489;28;19912;-82
2023/12/25 00:49:19;;;;;;;;;;;11.10;1.00;;;;;;5036637;28;19959;-75
2023/12/25 00:51:45;;;;;;;;;;;11.20;1.00;;;;;;5036365;28;19968;-75
2023/12/25 00:54:16;;;;;;;;;;;11.10;1.00;;;;;;5036276;28;19909;-75
2023/12/25 00:56:42;;;;;;;;;;;;;;;;;;5035529;28;19911;-75
2023/12/25 00:59:10;;;;;;;;;;;11.20;1.00;;;;;;5024739;28;20350;-75
2023/12/25 01:01:40;;;;;;;;;;;11.20;1.00;;;;;;5035772;28;19909;-75
2023/12/25 01:04:22;;;;;;;;;;;11.20;1.00;;;;;;5033021;28;19917;-81
2023/12/25 01:07:22;;;;;;;;;;;11.20;1.00;;;;;;5027285;28;19919;-82
2023/12/25 01:09:52;;;;;;;;;;;11.10;1.00;;;;;;5019575;28;20264;-82
2023/12/25 01:12:18;;;;;;;;;;;11.20;1.00;;;;;;5030135;28;20269;-81
2023/12/25 01:18:16;;;;;;;;;;;11.20;1.00;;;;;;5019320;28;19959;-81
2023/12/25 01:20:52;;;;;;;;;;;11.20;1.00;;;;;;5030626;28;19913;-82
2023/12/25 01:26:22;;;;;;;;;;;11.20;1.00;;;;;;5025263;28;20327;-81
2023/12/25 01:29:16;;;;;;;;;;;11.20;1.00;;;;;;5027625;28;19909;-79
2023/12/25 01:34:46;;;;;;;;;;;11.20;1.00;;;;;;5034458;28;20008;-75
2023/12/25 01:37:12;;;;;;;;;;;11.20;1.00;;;;;;5034909;28;19905;-75
2023/12/25 01:39:37;;;;;;;;;;;11.30;1.00;;;;;;5035269;28;19971;-75
2023/12/25 01:42:03;;;;;;;;;;;11.20;1.00;;;;;;5034550;28;19983;-75
2023/12/25 01:44:28;;;;;;;;;;;11.30;1.00;;;;;;5028092;28;19999;-75
2023/12/25 01:46:54;;;;;;;;;;;11.20;1.00;;;;;;5034750;28;19912;-74
2023/12/25 01:49:34;;;;;;;;;;;11.30;1.00;;;;;;5035239;28;19908;-76
2023/12/25 01:52:00;;;;;;;;;;;11.30;1.00;;;;;;5028440;28;19920;-74
2023/12/25 01:54:26;;;;;;;;;;;;;;;;;;5055375;28;19905;-75
2023/12/25 01:56:52;;;;;;;;;;;11.30;1.00;;;;;;5034838;28;19912;-75
2023/12/25 01:59:17;;;;;;;;;;;11.30;1.00;;;;;;5031801;28;20059;-74
2023/12/25 02:01:46;;;;;;;;;;;11.30;1.00;;;;;;5026500;28;20012;-75
2023/12/25 02:04:11;;;;;;;;;;;11.20;1.00;;;;;;5030605;28;19916;-75
2023/12/25 02:06:58;;;;;;;;;;;11.30;1.00;;;;;;5024072;28;19913;-82
2023/12/25 02:09:28;;;;;;;;;;;11.30;1.00;;;;;;5035019;28;19959;-81
2023/12/25 02:12:10;;;;;;;;;;;11.20;1.00;;;;;;5024972;28;19917;-82
2023/12/25 02:17:38;;;;;;;;;;;11.20;1.00;;;;;;5034909;28;19955;-82
2023/12/25 02:20:04;;;;;;;;;;;11.30;1.00;;;;;;5035047;28;19905;-76
2023/12/25 02:22:34;;;;;;;;;;;;;;;;;;5020462;28;20269;-74
2023/12/25 02:25:08;;;;;;;;;;;11.30;1.00;;;;;;5016310;28;19905;-74
2023/12/25 02:27:40;;;;;;;;;;;11.40;1.00;;;;;;5033117;28;19917;-74
2023/12/25 02:30:06;;;;;;;;;;;11.30;1.00;;;;;;5028039;28;19909;-75
2023/12/25 02:32:32;;;;;;;;;;;11.30;1.00;;;;;;5034263;28;19940;-75
2023/12/25 02:34:57;;;;;;;;;;;11.30;1.00;;;;;;5017089;28;19948;-75
2023/12/25 02:37:34;;;;;;;;;;;11.30;1.00;;;;;;5034455;28;20046;-75
2023/12/25 02:40:00;;;;;;;;;;;;;;;;;;5034233;28;20408;-75
2023/12/25 02:42:28;;;;;;;;;;;11.30;1.00;;;;;;5034108;28;19913;-75
2023/12/25 02:44:54;;;;;;;;;;;11.30;1.00;;;;;;5034443;28;19909;-75
2023/12/25 02:47:22;;;;;;;;;;;11.30;1.00;;;;;;5024178;28;20426;-74
2023/12/25 02:49:48;;;;;;;;;;;11.30;1.00;;;;;;5034377;28;19962;-75
2023/12/25 02:52:22;;;;;;;;;;;11.20;1.00;;;;;;5020090;28;19917;-75
2023/12/25 02:54:58;;;;;;;;;;;;;;;;;;5029785;28;19917;-75
2023/12/25 02:57:28;;;;;;;;;;;11.30;1.00;;;;;;5023016;28;19909;-75
2023/12/25 02:59:54;;;;;;;;;;;11.20;1.00;;;;;;5033326;28;19912;-74
2023/12/25 03:02:19;;;;;;;;;;;11.20;1.00;;;;;;5038452;28;19917;-75
2023/12/25 03:04:46;;;;;;;;;;;11.10;1.00;;;;;;5026729;28;20018;-75
2023/12/25 03:07:34;;;;;;;;;;;11.20;1.00;;;;;;5040099;28;19920;-75
2023/12/25 03:10:10;;;;;;;;;;;11.20;1.00;;;;;;5014299;28;19944;-75
2023/12/25 03:12:46;;;;;;;;;;;11.20;1.00;;;;;;5024603;28;20357;-75
2023/12/25 03:15:12;;;;;;;;;;;11.20;1.00;;;;;;5022723;28;19944;-76
2023/12/25 03:17:37;;;;;;;;;;;11.20;1.00;;;;;;5029497;28;19949;-75
2023/12/25 03:20:03;;;;;;;;;;;11.20;1.00;;;;;;5026587;28;19919;-74
2023/12/25 03:25:46;;;;;;;;;;;11.20;1.00;;;;;;5033689;28;19913;-82
2023/12/25 03:28:29;;;;;;;;;;;11.20;1.00;;;;;;5034085;28;19906;-82
2023/12/25 03:37:00;;;;;;;;;;;11.10;1.00;;;;;;5033988;28;19954;-75
2023/12/25 03:39:25;;;;;;;;;;;11.20;1.00;;;;;;5032885;28;19913;-75
2023/12/25 03:42:04;;;;;;;;;;;;;;;;;;5033584;28;19931;-75
2023/12/25 03:44:34;;;;;;;;;;;11.20;1.00;;;;;;5003223;28;19940;-75
2023/12/25 03:47:04;;;;;;;;;;;11.10;1.00;;;;;;5031258;28;19905;-75
2023/12/25 03:49:46;;;;;;;;;;;;;;;;;;5031935;28;19916;-75
2023/12/25 03:52:12;;;;;;;;;;;11.10;1.00;;;;;;5031834;28;20014;-74
2023/12/25 03:54:38;;;;;;;;;;;11.20;1.00;;;;;;5037812;28;20356;-75
2023/12/25 03:57:06;;;;;;;;;;;11.10;1.00;;;;;;5016007;28;19908;-75
2023/12/25 03:59:40;;;;;;;;;;;11.10;1.00;;;;;;5033449;28;19941;-76
2023/12/25 04:02:06;;;;;;;;;;;11.00;1.00;;;;;;5027830;28;19909;-76
2023/12/25 04:04:31;;;;;;;;;;;11.00;1.00;;;;;;5033281;28;19909;-76
2023/12/25 04:06:58;;;;;;;;;;;11.00;1.00;;;;;;5033912;28;19913;-82
2023/12/25 04:09:28;;;;;;;;;;;11.00;1.00;;;;;;5033688;28;19916;-82
2023/12/25 04:11:55;;;;;;;;;;;10.90;1.00;;;;;;5036302;28;19915;-82
2023/12/25 04:14:20;;;;;;;;;;;10.90;1.00;;;;;;5032715;28;19919;-82
2023/12/25 04:16:52;;;;;;;;;;;10.90;1.00;;;;;;5037591;28;19909;-83
2023/12/25 04:22:21;;;;;;;;;;;10.90;1.00;;;;;;5032221;28;19916;-82
2023/12/25 04:28:10;;;;;;;;;;;10.90;1.00;;;;;;5034136;28;19971;-82
2023/12/25 04:31:10;;;;;;;;;;;10.90;1.00;;;;;;5037390;28;20028;-82
2023/12/25 04:33:40;;;;;;;;;;;;;;;;;;5036509;28;19911;-83
2023/12/25 04:36:06;;;;;;;;;;;10.90;1.00;;;;;;5035962;28;19905;-75
2023/12/25 04:38:40;;;;;;;;;;;11.00;1.00;;;;;;5036625;28;19951;-75
2023/12/25 04:41:36;;;;;;;;;;;10.90;1.00;;;;;;5026292;28;19905;-76
2023/12/25 04:44:04;;;;;;;;;;;11.00;1.00;;;;;;4966137;28;19906;-75
2023/12/25 04:46:35;;;;;;;;;;;11.00;1.00;;;;;;4975150;28;19910;-75
2023/12/25 04:49:16;;;;;;;;;;;;;;;;;;4975344;28;19906;-75
2023/12/25 04:51:42;;;;;;;;;;;11.00;1.00;;;;;;4971540;28;19914;-75
2023/12/25 04:54:07;;;;;;;;;;;11.00;1.00;;;;;;4974815;28;19906;-76
2023/12/25 04:56:34;;;;;;;;;;;11.00;1.00;;;;;;4973013;28;19917;-74
2023/12/25 04:59:04;;;;;;;;;;;;;;;;;;4975389;28;19953;-75
2023/12/25 05:01:40;;;;;;;;;;;;;;;;;;4973789;28;19961;-75
2023/12/25 05:04:22;;;;;;;;;;;10.90;1.00;;;;;;4975332;28;19953;-76
2023/12/25 05:07:05;;;;;;;;;;;10.90;1.00;;;;;;4968262;28;19921;-82
2023/12/25 05:12:33;;;;;;;;;;;10.90;1.00;;;;;;4958782;28;20005;-83
2023/12/25 05:15:01;;;;;;;;;;;10.90;1.00;;;;;;4974807;28;19958;-82
2023/12/25 05:20:34;;;;;;;;;;;10.90;1.00;;;;;;5000710;28;19916;-82
2023/12/25 05:23:04;;;;;;;;;;;10.90;1.00;;;;;;5024159;28;19909;-75
2023/12/25 05:25:30;;;;;;;;;;;11.00;1.00;;;;;;5009444;28;20011;-75
2023/12/25 05:27:58;;;;;;;;;;;;;;;;;;5017978;28;19995;-75
2023/12/25 05:30:28;;;;;;;;;;;;;;;;;;5035349;28;19916;-75
2023/12/25 05:33:04;;;;;;;;;;;11.00;1.00;;;;;;5035591;28;20000;-75
2023/12/25 05:35:30;;;;;;;;;;;10.90;1.00;;;;;;5035607;28;19955;-75
2023/12/25 05:38:04;;;;;;;;;;;11.00;1.00;;;;;;5032025;28;19905;-83
2023/12/25 05:40:41;;;;;;;;;;;10.90;1.00;;;;;;5025672;28;19905;-82
2023/12/25 05:43:10;;;;;;;;;;;10.90;1.00;;;;;;5035500;28;20403;-82
2023/12/25 05:45:46;;;;;;;;;;;11.00;1.00;;;;;;5035653;28;19905;-83
2023/12/25 05:48:16;;;;;;;;;;;11.00;1.00;;;;;;5017827;28;19905;-82
2023/12/25 05:50:58;;;;;;;;;;;10.80;1.00;;;;;;5035768;28;19971;-82
2023/12/25 05:53:28;;;;;;;;;;;10.80;1.00;;;;;;5024466;28;20004;-83
2023/12/25 05:56:10;;;;;;;;;;;10.80;1.00;;;;;;5039499;28;19909;-82
2023/12/25 05:58:36;;;;;;;;;;;10.40;1.00;;;;;;5017744;28;19913;-82
2023/12/25 06:01:02;;;;;;;;;;;10.30;1.00;;;;;;5020566;28;19959;-82
2023/12/25 06:03:40;;;;;;;;;;;10.10;6.10;;;;;;5035010;28;19959;-82
2023/12/25 06:06:07;;;;;;;;;;;;;;;;;;5028561;28;20011;-82
2023/12/25 06:08:33;;;;;;;;;;;10.10;13.50;;;;;;5034859;28;19959;-75
2023/12/25 06:11:04;;;;;;;;;;;10.00;16.50;;;;;;5033988;28;19913;-75
2023/12/25 06:13:30;;;;;;;;;;;;;;;;;;5025039;28;19924;-76
2023/12/25 06:15:56;;;;;;;;;;;10.00;21.80;;;;;;5016002;28;20292;-75
2023/12/25 06:18:22;;;;;;;;;;;9.90;27.50;;;;;;5017305;28;19991;-75
2023/12/25 06:20:52;;;;;;;;;;;9.90;32.70;;;;;;5034694;28;20280;-75
2023/12/25 06:23:18;;;;;;;;;;;9.90;39.60;;;;;;5035060;28;19913;-75
2023/12/25 06:25:46;;;;;;;;;;;9.90;39.60;;;;;;5027726;28;20004;-75
2023/12/25 06:28:12;;;;;;;;;;;9.90;39.60;;;;;;5036907;28;20364;-75
2023/12/25 06:30:38;;;;;;;;;;;9.70;39.40;;;;;;5025041;28;19905;-74
2023/12/25 06:33:04;;;;;;;;;;;9.80;39.50;;;;;;5038912;28;19909;-75
2023/12/25 06:35:40;;;;;;;;;;;;;;;;;;5049022;28;19915;-75
2023/12/25 06:38:11;;;;;;;;;;;9.70;39.30;;;;;;5004883;28;20326;-75
2023/12/25 06:40:37;;;;;;;;;;;9.70;39.30;;;;;;5049982;28;19909;-76
2023/12/25 06:43:04;;;;;;;;;;;9.70;39.30;;;;;;5038899;28;20567;-75
2023/12/25 06:45:34;;;;;;;;;;;;;;;;;;5034332;28;19905;-75
2023/12/25 06:48:10;;;;;;;;;;;;;;;;;;5024685;28;19905;-75
2023/12/25 06:50:40;;;;;;;;;;;;;;;;;;5038215;28;19924;-75
2023/12/25 06:53:22;;;;;;;;;;;;;;;;;;5052601;28;19913;-75
2023/12/25 06:55:50;;;;;;;;;;;9.70;39.30;;;;;;5038132;28;21342;-75
2023/12/25 06:58:15;;;;;;;;;;;9.60;39.30;;;;;;5034749;28;19909;-76
2023/12/25 07:12:16;;;;;;;;;;;9.60;59.00;;;;;;5022573;28;19916;-93
2023/12/25 07:17:45;;;;;;;;;;;9.60;60.00;;;;;;5034913;28;20008;-93
2023/12/25 07:23:14;;;;;;;;;;;9.70;59.30;;;;;;5015640;28;20028;-93
2023/12/25 07:28:42;;;;;;;;;;;9.60;56.30;;;;;;5034410;28;20039;-92
2023/12/25 07:37:20;;;;;;;;;;;9.70;59.60;;;;;;5014762;28;19920;-92
2023/12/25 07:40:10;;;;;;;;;;;9.70;58.10;;;;;;5016286;28;19913;-90
2023/12/25 07:43:10;;;;;;;;;;;9.60;61.40;;;;;;5013825;28;19956;-90
2023/12/25 07:46:10;;;;;;;;;;;9.70;62.60;;;;;;5019354;28;19909;-90
2023/12/25 07:48:57;;;;;;;;;;;9.70;61.90;;;;;;5020347;28;19916;-91
2023/12/25 07:51:40;;;;;;;;;;;9.60;64.30;;;;;;5037491;28;19917;-90
2023/12/25 07:54:06;;;;;;;;;;;9.70;64.40;;;;;;5009515;28;19956;-91
2023/12/25 07:59:28;;;;;;;;;;;9.70;62.90;;;;;;5037850;28;19920;-86
2023/12/25 08:01:58;;;;;;;;;;;9.70;62.90;;;;;;5038114;28;19971;-86
2023/12/25 08:04:40;;;;;;;;;;;9.70;60.90;;;;;;5015465;28;19964;-86
2023/12/25 08:28:40;;;;;;;;;;;9.70;67.90;;;;;;5025484;28;20007;-85
2023/12/25 08:33:51;;;;;;;;;;;9.70;56.50;;;;;;5034401;28;19920;-89
2023/12/25 08:39:41;;;;;;;;;;;9.80;51.90;;;;;;5050618;28;19967;-93
2023/12/25 08:42:13;;;;;;;;;;;9.80;48.90;;;;;;5006384;28;19913;-92
2023/12/25 08:44:40;;;;;;;;;;;9.80;45.80;;;;;;5014908;28;19908;-92
2023/12/25 08:47:10;;;;;;;;;;;9.80;47.00;;;;;;5048384;28;19920;-92
2023/12/25 08:50:10;;;;;;;;;;;9.70;46.50;;;;;;5034933;28;20322;-91
2023/12/25 08:52:53;;;;;;;;;;;9.70;48.30;;;;;;5028049;28;19938;-91
2023/12/25 08:55:34;;;;;;;;;;;9.80;51.90;;;;;;5036352;28;19913;-88
2023/12/25 08:58:10;;;;;;;;;;;9.80;47.40;;;;;;5018090;28;19916;-88
2023/12/25 09:00:40;;;;;;;;;;;9.80;44.50;;;;;;5026702;28;19944;-88
2023/12/25 09:03:06;;;;;;;;;;;9.80;48.70;;;;;;5018209;28;19913;-88
2023/12/25 09:05:32;;;;;;;;;;;9.70;49.10;;;;;;5018211;28;20059;-88
2023/12/25 09:08:28;;;;;;;;;;;9.80;49.10;;;;;;5018524;28;19913;-88
2023/12/25 09:17:28;;;;;;;;;;;9.70;52.00;;;;;;5036856;28;20379;-88
2023/12/25 09:20:16;;;;;;;;;;;9.80;54.60;;;;;;5023272;28;19913;-84
2023/12/25 09:22:47;;;;;;;;;;;9.80;55.00;;;;;;5037135;28;20364;-84
2023/12/25 09:28:16;;;;;;;;;;;10.10;41.00;;;;;;5030447;28;19917;-78
2023/12/25 09:30:41;;;;;;;;;;;10.00;38.60;;;;;;5048764;28;19910;-77
2023/12/25 09:33:10;;;;;;;;;;;10.00;38.60;;;;;;5031689;28;19919;-78
2023/12/25 09:35:36;;;;;;;;;;;10.10;38.70;;;;;;5044120;28;19913;-76
2023/12/25 09:38:02;;;;;;;;;;;10.00;38.60;;;;;;5054247;28;19916;-78
2023/12/25 09:40:40;;;;;;;;;;;10.10;38.80;;;;;;5040857;28;19956;-84
2023/12/25 09:43:41;;;;;;;;;;;10.10;38.80;;;;;;5041250;28;19913;-84
2023/12/25 09:46:23;;;;;;;;;;;10.00;38.70;;;;;;5040227;28;19953;-86
2023/12/25 09:48:58;;;;;;;;;;;10.10;38.80;;;;;;5036630;28;19913;-86
2023/12/25 09:51:40;;;;;;;;;;;10.10;38.80;;;;;;5025900;28;19917;-86
2023/12/25 09:54:10;;;;;;;;;;;10.10;38.70;;;;;;5034671;28;20314;-85
2023/12/25 10:03:10;;;;;;;;;;;10.30;35.90;;;;;;5047783;28;19920;-84
2023/12/25 10:05:40;;;;;;;;;;;10.40;30.60;;;;;;5048474;28;19958;-84
2023/12/25 10:08:40;;;;;;;;;;;10.20;31.60;;;;;;5052819;28;19917;-86
2023/12/25 10:11:13;;;;;;;;;;;10.30;35.70;;;;;;5020227;28;19917;-75
2023/12/25 10:13:54;;;;;;;;;;;10.30;31.50;;;;;;5023905;28;19975;-78
2023/12/25 10:16:34;;;;;;;;;;;10.30;29.50;;;;;;5037910;28;19913;-77
2023/12/25 10:19:11;;;;;;;;;;;10.30;30.00;;;;;;5033057;28;19949;-78
2023/12/25 10:21:44;;;;;;;;;;;10.40;26.80;;;;;;5032784;28;20365;-75
2023/12/25 10:24:10;;;;;;;;;;;10.40;24.80;;;;;;5041257;28;19914;-76
2023/12/25 10:26:40;;;;;;;;;;;;;;;;;;5035391;28;19921;-76
2023/12/25 10:29:07;;;;;;;;;;;10.30;24.00;;;;;;5044252;28;19912;-75
2023/12/25 10:31:47;;;;;;;;;;;10.30;25.00;;;;;;5043041;28;19949;-76
2023/12/25 10:34:28;;;;;;;;;;;10.30;24.80;;;;;;5027324;28;20000;-75
2023/12/25 10:37:01;;;;;;;;;;;10.40;23.40;;;;;;5037413;28;19917;-77
2023/12/25 10:39:30;;;;;;;;;;;10.40;23.20;;;;;;5054302;28;19913;-76
2023/12/25 10:42:05;;;;;;;;;;;10.40;21.70;;;;;;5036999;28;19917;-74
2023/12/25 10:44:32;;;;;;;;;;;10.30;20.80;;;;;;5045994;28;20327;-76
2023/12/25 10:47:00;;;;;;;;;;;10.40;21.70;;;;;;5039053;28;19909;-76
2023/12/25 10:49:41;;;;;;;;;;;10.50;19.90;;;;;;5030747;28;19918;-74
2023/12/25 10:52:16;;;;;;;;;;;10.60;13.70;;;;;;5036152;28;19916;-82
2023/12/25 10:54:47;;;;;;;;;;;10.60;14.30;;;;;;5026087;28;20369;-76
2023/12/25 10:57:13;;;;;;;;;;;10.50;14.70;;;;;;5016553;28;20375;-77
2023/12/25 10:59:40;;;;;;;;;;;;;;;;;;5020943;28;19996;-76
2023/12/25 11:02:11;;;;;;;;;;;10.50;18.20;;;;;;5037704;28;19917;-75
2023/12/25 11:04:41;;;;;;;;;;;10.50;17.60;;;;;;5049076;28;19979;-76
2023/12/25 11:07:07;;;;;;;;;;;10.50;18.50;;;;;;5040271;28;20419;-75
2023/12/25 11:09:35;;;;;;;;;;;10.60;17.00;;;;;;5045127;28;19949;-75
2023/12/25 11:12:00;;;;;;;;;;;10.60;14.50;;;;;;5025435;28;19972;-80
2023/12/25 11:14:29;;;;;;;;;;;10.70;10.00;;;;;;5041862;28;19952;-79
2023/12/25 11:17:11;;;;;;;;;;;10.80;6.60;;;;;;5053618;28;19913;-81
2023/12/25 11:19:40;;;;;;;;;;;10.70;5.40;;;;;;5011038;28;19915;-81
2023/12/25 11:22:28;;;;;;;;;;;10.70;6.60;;;;;;5041639;28;19967;-81
2023/12/25 11:25:00;;;;;;;;;;;10.70;7.50;;;;;;5037711;28;20004;-80
2023/12/25 11:27:58;;;;;;;;;;;10.70;2.50;;;;;;5045132;28;19910;-81
2023/12/25 11:30:41;;;;;;;;;;;10.70;3.30;;;;;;5039077;28;19913;-80
2023/12/25 11:33:07;;;;;;;;;;;10.80;1.00;;;;;;5044382;28;19909;-79
2023/12/25 11:35:34;;;;;;;;;;;10.70;1.00;;;;;;5044701;28;19909;-79
2023/12/25 11:41:37;;;;;;;;;;;10.80;1.10;;;;;;5034645;28;20500;-82
2023/12/25 11:44:08;;;;;;;;;;;10.70;1.00;;;;;;5031690;28;20386;-80
2023/12/25 11:46:43;;;;;;;;;;;10.80;1.00;;;;;;5037651;28;19921;-74
2023/12/25 11:49:09;;;;;;;;;;;10.80;1.00;;;;;;5033072;28;20254;-75
2023/12/25 11:51:43;;;;;;;;;;;10.90;1.00;;;;;;5039932;28;19917;-74
2023/12/25 11:54:11;;;;;;;;;;;10.80;1.00;;;;;;5038399;28;19915;-75
2023/12/25 11:57:10;;;;;;;;;;;10.80;1.00;;;;;;5040326;28;19916;-80
2023/12/25 11:59:41;;;;;;;;;;;10.70;1.00;;;;;;5029412;28;20003;-83
2023/12/25 12:05:23;;;;;;;;;;;10.70;1.00;;;;;;5030603;28;19921;-81
2023/12/25 12:07:53;;;;;;;;;;;10.80;1.00;;;;;;5030761;28;20411;-82
2023/12/25 12:10:23;;;;;;;;;;;10.80;1.00;;;;;;5054034;28;20295;-77
2023/12/25 12:12:48;;;;;;;;;;;10.80;1.00;;;;;;5034899;28;19967;-73
2023/12/25 12:15:14;;;;;;;;;;;10.80;1.00;;;;;;5015746;28;19929;-75
2023/12/25 12:17:40;;;;;;;;;;;10.80;1.00;;;;;;5051844;28;19944;-74
2023/12/25 12:20:06;;;;;;;;;;;10.80;1.00;;;;;;5039662;28;19913;-73
2023/12/25 12:22:32;;;;;;;;;;;10.70;1.00;;;;;;5048486;28;19920;-74
2023/12/25 12:25:22;;;;;;;;;;;10.70;1.00;;;;;;5029550;28;20000;-74
2023/12/25 12:28:00;;;;;;;;;;;10.70;1.00;;;;;;5040715;28;19959;-79
2023/12/25 12:30:30;;;;;;;;;;;10.80;1.00;;;;;;5010411;28;19914;-80
2023/12/25 12:33:16;;;;;;;;;;;10.90;1.00;;;;;;5047772;28;19963;-79
2023/12/25 12:35:53;;;;;;;;;;;10.90;1.00;;;;;;5024253;28;19959;-80
2023/12/25 12:38:47;;;;;;;;;;;11.00;1.00;;;;;;5038355;28;19940;-79
2023/12/25 12:41:12;;;;;;;;;;;10.90;1.00;;;;;;5040363;28;19908;-75
2023/12/25 12:43:39;;;;;;;;;;;11.00;1.00;;;;;;5035830;28;19920;-75
2023/12/25 12:46:25;;;;;;;;;;;11.00;1.00;;;;;;5011166;28;20292;-76
2023/12/25 12:48:51;;;;;;;;;;;11.00;1.00;;;;;;5037863;28;20269;-76
2023/12/25 12:51:35;;;;;;;;;;;10.90;1.00;;;;;;5046134;28;19920;-75
2023/12/25 12:54:17;;;;;;;;;;;10.90;1.00;;;;;;5030712;28;19917;-75
2023/12/25 12:56:59;;;;;;;;;;;10.90;1.00;;;;;;5028448;28;19916;-81
2023/12/25 12:59:35;;;;;;;;;;;10.90;1.00;;;;;;5023910;28;19917;-80
2023/12/25 13:02:00;;;;;;;;;;;10.90;1.00;;;;;;5016450;28;19914;-84
2023/12/25 13:04:46;;;;;;;;;;;10.90;1.00;;;;;;5027367;28;19916;-77
2023/12/25 13:10:17;;;;;;;;;;;10.90;1.00;;;;;;5035174;28;19959;-84
2023/12/25 13:12:54;;;;;;;;;;;11.00;1.00;;;;;;5015561;28;19976;-85
2023/12/25 13:15:29;;;;;;;;;;;11.00;1.00;;;;;;5024620;28;19924;-85
2023/12/25 13:21:05;;;;;;;;;;;10.90;1.00;;;;;;5043211;28;19916;-88
2023/12/25 13:23:42;;;;;;;;;;;10.90;1.00;;;;;;5023593;28;19913;-84
2023/12/25 13:26:29;;;;;;;;;;;11.00;1.00;;;;;;5048996;28;19908;-83
2023/12/25 13:29:11;;;;;;;;;;;;;;;;;;5029636;28;19912;-79
2023/12/25 13:31:41;;;;;;;;;;;11.00;1.00;;;;;;5035010;28;19949;-79
2023/12/25 13:34:11;;;;;;;;;;;11.10;1.00;;;;;;5048661;28;20245;-79
2023/12/25 13:36:37;;;;;;;;;;;11.10;1.00;;;;;;5029200;28;19914;-76
2023/12/25 13:39:05;;;;;;;;;;;11.10;1.00;;;;;;5037225;28;19920;-75
2023/12/25 13:41:31;;;;;;;;;;;11.20;1.00;;;;;;5033503;28;20375;-75
2023/12/25 13:44:05;;;;;;;;;;;11.10;1.00;;;;;;5034609;28;19964;-75
2023/12/25 13:46:35;;;;;;;;;;;11.20;1.00;;;;;;5030949;28;20007;-75
2023/12/25 13:49:11;;;;;;;;;;;11.20;1.00;;;;;;5017007;28;19909;-76
2023/12/25 13:51:36;;;;;;;;;;;11.20;1.00;;;;;;5035247;28;19920;-75
2023/12/25 13:54:11;;;;;;;;;;;;;;;;;;5033398;28;19917;-76
2023/12/25 13:57:11;;;;;;;;;;;11.30;1.00;;;;;;5036333;28;20383;-75
2023/12/25 13:59:41;;;;;;;;;;;11.30;1.00;;;;;;5030333;28;19913;-75
2023/12/25 14:02:08;;;;;;;;;;;11.30;1.00;;;;;;5031643;28;19917;-76
2023/12/25 14:04:35;;;;;;;;;;;11.20;1.00;;;;;;5028534;28;19914;-75
2023/12/25 14:07:01;;;;;;;;;;;11.10;1.00;;;;;;5020056;28;19917;-75
2023/12/25 14:09:29;;;;;;;;;;;11.20;1.00;;;;;;5037832;28;19996;-75
2023/12/25 14:11:59;;;;;;;;;;;11.10;1.00;;;;;;5024953;28;20021;-75
2023/12/25 14:14:26;;;;;;;;;;;11.10;1.00;;;;;;5025954;28;19921;-75
2023/12/25 14:16:53;;;;;;;;;;;11.20;1.00;;;;;;5019018;28;19913;-75
2023/12/25 14:19:23;;;;;;;;;;;11.20;1.00;;;;;;5025925;28;19957;-75
2023/12/25 14:21:49;;;;;;;;;;;11.20;1.00;;;;;;5029012;28;19913;-74
2023/12/25 14:24:15;;;;;;;;;;;;;;;;;;5032225;28;19917;-76
2023/12/25 14:26:41;;;;;;;;;;;11.20;1.00;;;;;;5034400;28;19920;-75
2023/12/25 14:29:07;;;;;;;;;;;11.20;1.00;;;;;;5026076;28;19968;-85
2023/12/25 14:31:41;;;;;;;;;;;11.20;1.00;;;;;;5000940;28;19909;-85
2023/12/25 14:34:40;;;;;;;;;;;11.10;1.00;;;;;;5033585;28;19913;-85
2023/12/25 14:37:35;;;;;;;;;;;11.10;1.00;;;;;;5024001;28;19920;-85
2023/12/25 14:43:11;;;;;;;;;;;11.00;1.00;;;;;;5033381;28;19936;-84
2023/12/25 14:45:41;;;;;;;;;;;11.00;1.00;;;;;;5026774;28;20393;-75
2023/12/25 14:48:11;;;;;;;;;;;11.00;1.00;;;;;;5006605;28;20370;-75
2023/12/25 14:50:37;;;;;;;;;;;10.90;1.00;;;;;;5033695;28;19913;-75
2023/12/25 14:53:03;;;;;;;;;;;11.00;1.00;;;;;;5023820;28;19917;-75
2023/12/25 14:55:29;;;;;;;;;;;11.00;1.00;;;;;;5007996;28;20402;-75
2023/12/25 14:57:54;;;;;;;;;;;11.10;1.00;;;;;;5026482;28;19917;-76
2023/12/25 15:00:20;;;;;;;;;;;11.10;1.00;;;;;;5034483;28;19913;-75
2023/12/25 15:02:48;;;;;;;;;;;11.10;1.00;;;;;;5044846;28;20054;-78
2023/12/25 15:05:29;;;;;;;;;;;11.10;1.00;;;;;;5036129;28;19975;-76
2023/12/25 15:07:58;;;;;;;;;;;11.10;1.00;;;;;;5035554;28;19928;-75
2023/12/25 15:10:29;;;;;;;;;;;11.10;1.00;;;;;;5029213;28;19914;-76
2023/12/25 15:12:59;;;;;;;;;;;11.20;1.00;;;;;;5033051;28;19943;-76
2023/12/25 15:15:35;;;;;;;;;;;11.20;1.00;;;;;;5017797;28;19964;-75
2023/12/25 15:18:00;;;;;;;;;;;11.10;1.00;;;;;;5023253;28;20010;-75
2023/12/25 15:20:29;;;;;;;;;;;11.10;1.00;;;;;;5027302;28;19963;-75
2023/12/25 15:22:55;;;;;;;;;;;11.10;1.00;;;;;;5006564;28;19979;-75
2023/12/25 15:25:23;;;;;;;;;;;11.10;1.00;;;;;;5015141;28;20074;-75
2023/12/25 15:28:05;;;;;;;;;;;11.00;1.00;;;;;;5018071;28;20055;-75
2023/12/25 15:30:31;;;;;;;;;;;11.00;1.00;;;;;;5028834;28;19912;-75
2023/12/25 15:32:58;;;;;;;;;;;10.90;1.00;;;;;;5000919;28;19917;-75
2023/12/25 15:35:23;;;;;;;;;;;11.00;1.00;;;;;;5034253;28;19958;-75
2023/12/25 15:37:49;;;;;;;;;;;10.90;1.00;;;;;;5030689;28;19913;-75
2023/12/25 15:40:15;;;;;;;;;;;10.90;1.00;;;;;;5015189;28;19913;-74
2023/12/25 15:42:41;;;;;;;;;;;10.90;1.00;;;;;;5033317;28;19925;-75
2023/12/25 15:45:11;;;;;;;;;;;11.00;1.00;;;;;;5032055;28;20376;-84
2023/12/25 15:47:40;;;;;;;;;;;;;;;;;;5019426;28;20316;-83
2023/12/25 15:50:11;;;;;;;;;;;10.90;1.00;;;;;;5027355;28;19914;-85
2023/12/25 15:52:41;;;;;;;;;;;10.80;1.00;;;;;;5030860;28;19917;-85
2023/12/25 15:55:41;;;;;;;;;;;10.90;1.00;;;;;;5030915;28;19968;-84
2023/12/25 15:58:17;;;;;;;;;;;10.90;1.00;;;;;;5028217;28;19963;-85
2023/12/25 16:03:59;;;;;;;;;;;10.90;1.00;;;;;;5014205;28;19922;-85
2023/12/25 16:06:25;;;;;;;;;;;;;;;;;;5018041;28;19920;-85
2023/12/25 16:11:53;;;;;;;;;;;10.80;1.00;;;;;;5038185;28;20024;-85
2023/12/25 16:14:19;;;;;;;;;;;10.90;1.00;;;;;;5030752;28;21978;-83
2023/12/25 16:16:53;;;;;;;;;;;10.90;1.00;;;;;;5048351;28;20244;-76
2023/12/25 16:19:19;;;;;;;;;;;10.90;1.00;;;;;;5031654;28;19924;-76
2023/12/25 16:21:47;;;;;;;;;;;10.80;1.00;;;;;;5036762;28;19917;-75
2023/12/25 16:24:14;;;;;;;;;;;;;;;;;;5002823;28;20282;-75
2023/12/25 16:26:41;;;;;;;;;;;10.90;1.00;;;;;;5021552;28;19921;-75
2023/12/25 16:29:06;;;;;;;;;;;10.90;1.00;;;;;;5049088;28;19915;-75
2023/12/25 16:34:41;;;;;;;;;;;10.90;1.00;;;;;;5036566;28;19955;-84
2023/12/25 16:37:11;;;;;;;;;;;10.90;1.00;;;;;;5037063;28;19909;-83
2023/12/25 16:39:59;;;;;;;;;;;10.90;1.00;;;;;;5019734;28;19909;-85
2023/12/25 16:42:30;;;;;;;;;;;11.00;1.00;;;;;;5035163;28;19970;-84
2023/12/25 16:44:59;;;;;;;;;;;11.00;1.00;;;;;;5034948;28;20415;-82
2023/12/25 16:47:41;;;;;;;;;;;11.00;1.00;;;;;;5036601;28;19913;-83
2023/12/25 16:50:41;;;;;;;;;;;11.00;1.00;;;;;;5042625;28;20363;-85
2023/12/25 16:53:11;;;;;;;;;;;10.90;1.00;;;;;;5035362;28;19913;-86
2023/12/25 16:55:41;;;;;;;;;;;10.90;1.00;;;;;;5020342;28;19909;-85
2023/12/25 16:58:11;;;;;;;;;;;11.00;1.00;;;;;;5037046;28;19948;-85
2023/12/25 17:00:36;;;;;;;;;;;11.00;1.00;;;;;;5036600;28;19917;-78
2023/12/25 17:03:02;;;;;;;;;;;11.00;1.00;;;;;;5023584;28;19919;-75
2023/12/25 17:05:28;;;;;;;;;;;11.00;1.00;;;;;;5025883;28;19975;-75
2023/12/25 17:07:53;;;;;;;;;;;11.10;1.00;;;;;;5035338;28;19946;-75
2023/12/25 17:10:20;;;;;;;;;;;11.10;1.00;;;;;;5037354;28;19913;-78
2023/12/25 17:12:45;;;;;;;;;;;11.00;1.00;;;;;;5037177;28;20356;-81
2023/12/25 17:15:11;;;;;;;;;;;11.00;1.00;;;;;;5012135;28;19928;-75
2023/12/25 17:17:41;;;;;;;;;;;11.00;1.00;;;;;;5017715;28;19913;-87
2023/12/25 17:20:36;;;;;;;;;;;11.00;1.00;;;;;;5044970;28;20035;-85
2023/12/25 17:23:02;;;;;;;;;;;11.00;1.00;;;;;;5027671;28;19924;-81
2023/12/25 17:25:44;;;;;;;;;;;11.00;1.00;;;;;;5041900;28;19947;-82
2023/12/25 17:28:11;;;;;;;;;;;11.00;1.00;;;;;;5049325;28;19912;-82
2023/12/25 17:30:41;;;;;;;;;;;11.00;1.00;;;;;;5018341;28;19913;-80
2023/12/25 17:33:12;;;;;;;;;;;11.00;1.00;;;;;;5039228;28;20007;-83